Time;durP1;ratioP1;P1;durP2;ratioP2;P2;SDS_P1;SDS_P2;PMS_P1;PMS_P2;Temp;Humidity;BMP_temperature;BMP_pressure;BME280_temperature;BME280_humidity;BME280_pressure;Samples;Min_cycle;Max_cycle;Signal;HPM_P1;HPM_P2
2023/07/24 00:00:07;;;;;;;4.88;2.55;;;22.70;99.90;;;;;;6161563;23;20021;-81
2023/07/24 00:02:34;;;;;;;4.10;2.42;;;22.80;99.90;;;;;;6186451;23;20063;-81
2023/07/24 00:05:01;;;;;;;4.53;2.90;;;22.70;99.90;;;;;;6187385;23;20013;-81
2023/07/24 00:07:28;;;;;;;5.05;2.53;;;22.70;99.90;;;;;;6160305;23;20024;-81
2023/07/24 00:09:56;;;;;;;5.00;2.60;;;22.70;99.90;;;;;;6160915;23;20017;-81
2023/07/24 00:12:23;;;;;;;4.80;2.60;;;22.60;99.90;;;;;;6160074;23;20025;-81
2023/07/24 00:14:52;;;;;;;4.32;2.60;;;22.60;99.90;;;;;;6190770;23;20079;-80
2023/07/24 00:17:19;;;;;;;5.40;2.78;;;22.60;99.90;;;;;;6190135;23;20056;-81
2023/07/24 00:19:47;;;;;;;5.10;2.70;;;22.60;99.90;;;;;;6187093;23;20031;-81
2023/07/24 00:22:15;;;;;;;4.35;2.70;;;22.60;99.90;;;;;;6190407;23;20029;-81
2023/07/24 00:24:42;;;;;;;4.53;2.70;;;22.60;99.90;;;;;;6187371;23;20013;-81
2023/07/24 00:27:09;;;;;;;4.97;2.78;;;22.50;99.90;;;;;;6187262;23;20339;-81
2023/07/24 00:29:36;;;;;;;5.07;2.50;;;22.50;99.90;;;;;;6162442;23;20034;-81
2023/07/24 00:32:04;;;;;;;5.35;2.83;;;22.50;99.90;;;;;;6162885;23;20084;-81
2023/07/24 00:34:31;;;;;;;4.78;2.38;;;22.40;99.90;;;;;;6188534;23;20341;-80
2023/07/24 00:36:59;;;;;;;4.15;2.50;;;22.40;99.90;;;;;;6167520;23;20064;-80
2023/07/24 00:39:28;;;;;;;5.40;3.03;;;22.40;99.90;;;;;;6167144;23;20021;-80
2023/07/24 00:41:56;;;;;;;4.40;2.55;;;22.40;99.90;;;;;;6188917;23;20032;-80
2023/07/24 00:44:23;;;;;;;4.45;2.83;;;22.40;99.90;;;;;;6162152;23;20053;-80
2023/07/24 00:46:51;;;;;;;5.43;2.47;;;22.40;99.90;;;;;;6162487;23;20028;-80
2023/07/24 00:49:20;;;;;;;4.38;3.15;;;22.40;99.90;;;;;;6190421;23;20021;-80
2023/07/24 00:51:47;;;;;;;4.00;2.30;;;22.40;99.90;;;;;;6189480;23;20021;-80
2023/07/24 00:54:16;;;;;;;3.60;2.40;;;22.40;99.90;;;;;;6169906;23;20004;-80
2023/07/24 00:56:45;;;;;;;4.88;2.42;;;22.40;99.90;;;;;;6192224;23;20093;-80
2023/07/24 00:59:15;;;;;;;4.90;2.85;;;22.30;99.90;;;;;;6189570;23;20025;-80
2023/07/24 01:01:44;;;;;;;4.05;2.63;;;22.40;99.90;;;;;;6189281;23;20736;-80
2023/07/24 01:04:13;;;;;;;4.47;2.60;;;22.30;99.90;;;;;;6141336;23;20021;-80
2023/07/24 01:06:40;;;;;;;7.32;3.08;;;22.30;99.90;;;;;;6138306;23;20041;-80
2023/07/24 01:09:07;;;;;;;5.90;2.72;;;22.30;99.90;;;;;;6139729;23;20021;-80
2023/07/24 01:11:42;;;;;;;6.22;3.58;;;22.20;99.90;;;;;;6162642;23;20028;-80
2023/07/24 01:14:20;;;;;;;4.43;3.00;;;22.30;99.90;;;;;;6142046;23;20021;-80
2023/07/24 01:16:50;;;;;;;4.55;2.72;;;22.20;99.90;;;;;;6167590;23;20028;-80
2023/07/24 01:19:24;;;;;;;4.85;2.70;;;22.20;99.90;;;;;;6143287;23;20029;-80
2023/07/24 01:22:29;;;;;;;4.40;2.53;;;22.40;99.90;;;;;;6167764;23;20025;-80
2023/07/24 01:25:29;;;;;;;5.45;2.80;;;22.20;99.90;;;;;;6162143;23;20017;-80
2023/07/24 01:27:56;;;;;;;4.97;3.10;;;22.10;99.90;;;;;;6139771;23;20017;-80
2023/07/24 01:30:23;;;;;;;5.10;3.03;;;22.10;99.90;;;;;;6139081;23;20104;-80
2023/07/24 01:32:51;;;;;;;4.72;3.00;;;22.10;99.90;;;;;;6142758;23;20073;-80
2023/07/24 01:35:18;;;;;;;5.53;2.83;;;22.10;99.90;;;;;;6172162;23;20017;-80
2023/07/24 01:37:47;;;;;;;5.18;3.25;;;22.20;99.90;;;;;;6146330;23;20035;-80
2023/07/24 01:40:15;;;;;;;5.13;3.33;;;22.10;99.90;;;;;;6171249;23;20031;-81
2023/07/24 01:42:43;;;;;;;5.32;2.72;;;22.10;99.90;;;;;;6149499;23;20027;-81
2023/07/24 01:45:11;;;;;;;4.90;3.00;;;22.10;99.90;;;;;;6142660;23;20021;-81
2023/07/24 01:47:39;;;;;;;7.07;3.47;;;22.10;99.90;;;;;;6139651;23;20032;-81
2023/07/24 01:50:07;;;;;;;6.97;3.10;;;22.10;99.90;;;;;;6165480;23;20094;-80
2023/07/24 01:52:34;;;;;;;6.05;3.15;;;22.00;99.90;;;;;;6164472;23;20074;-80
2023/07/24 01:55:02;;;;;;;5.32;2.97;;;22.10;99.90;;;;;;6144348;23;20033;-80
2023/07/24 01:57:29;;;;;;;4.78;2.72;;;21.90;99.90;;;;;;6143285;23;20353;-80
2023/07/24 01:59:59;;;;;;;4.78;3.28;;;22.00;99.90;;;;;;6146378;23;20017;-80
2023/07/24 02:02:26;;;;;;;8.98;3.20;;;22.00;99.90;;;;;;6154351;23;20080;-80
2023/07/24 02:04:54;;;;;;;5.45;2.97;;;22.20;99.90;;;;;;6171987;23;20031;-80
2023/07/24 02:07:22;;;;;;;4.80;3.20;;;22.00;99.90;;;;;;6172257;23;20029;-80
2023/07/24 02:09:50;;;;;;;5.80;3.45;;;22.00;99.90;;;;;;6171355;23;20468;-80
2023/07/24 02:12:20;;;;;;;5.72;3.45;;;22.00;99.90;;;;;;6192450;23;20080;-80
2023/07/24 02:14:51;;;;;;;7.95;4.05;;;21.90;99.90;;;;;;6194417;23;20032;-80
2023/07/24 02:17:19;;;;;;;4.55;2.90;;;22.00;99.90;;;;;;6192469;23;20096;-80
2023/07/24 02:19:46;;;;;;;4.60;3.15;;;22.00;99.90;;;;;;6169259;23;20040;-80
2023/07/24 02:22:13;;;;;;;5.78;3.88;;;22.00;99.90;;;;;;6177756;23;20021;-80
2023/07/24 02:24:44;;;;;;;4.72;3.35;;;22.00;99.90;;;;;;6177405;23;20021;-80
2023/07/24 02:27:16;;;;;;;5.47;3.15;;;22.00;99.90;;;;;;6199057;23;20020;-80
2023/07/24 02:29:46;;;;;;;5.22;3.33;;;22.00;99.90;;;;;;6196110;23;20020;-80
2023/07/24 02:32:14;;;;;;;7.18;3.60;;;22.00;99.90;;;;;;6193333;23;20017;-80
2023/07/24 02:34:41;;;;;;;7.22;3.85;;;22.00;99.90;;;;;;6194158;23;20033;-80
2023/07/24 02:37:12;;;;;;;4.90;3.58;;;22.00;99.90;;;;;;6166829;23;20029;-80
2023/07/24 02:39:39;;;;;;;5.78;3.25;;;21.90;99.90;;;;;;6167691;23;20032;-80
2023/07/24 02:42:06;;;;;;;5.43;3.10;;;21.80;99.90;;;;;;6167389;23;20052;-80
2023/07/24 02:44:35;;;;;;;5.63;3.42;;;21.80;99.90;;;;;;6195047;23;20029;-80
2023/07/24 02:47:02;;;;;;;5.55;3.35;;;21.90;99.90;;;;;;6170811;23;20120;-80
2023/07/24 02:49:29;;;;;;;5.32;2.97;;;21.90;99.90;;;;;;6195381;23;20024;-80
2023/07/24 02:51:57;;;;;;;5.15;2.88;;;21.90;99.90;;;;;;6196607;23;20013;-80
2023/07/24 02:54:26;;;;;;;5.70;3.08;;;21.90;99.90;;;;;;6168182;23;20461;-80
2023/07/24 02:56:53;;;;;;;5.75;3.42;;;21.80;99.90;;;;;;6190422;23;20024;-80
2023/07/24 02:59:21;;;;;;;6.63;3.45;;;21.80;99.90;;;;;;6191559;23;20021;-80
2023/07/24 03:01:48;;;;;;;5.15;3.25;;;21.80;99.90;;;;;;6162879;23;20024;-80
2023/07/24 03:04:16;;;;;;;7.30;4.38;;;21.70;99.90;;;;;;6163684;23;20025;-80
2023/07/24 03:06:46;;;;;;;6.57;4.07;;;21.70;99.90;;;;;;6166699;23;20017;-80
2023/07/24 03:09:14;;;;;;;9.52;5.32;;;21.70;99.90;;;;;;6144442;23;20021;-80
2023/07/24 03:11:41;;;;;;;8.75;6.07;;;21.70;99.90;;;;;;6142100;23;20037;-80
2023/07/24 03:14:09;;;;;;;8.48;5.55;;;21.70;99.90;;;;;;6166471;23;20028;-80
2023/07/24 03:16:36;;;;;;;8.43;5.25;;;21.70;99.90;;;;;;6139881;23;20496;-80
2023/07/24 03:19:04;;;;;;;9.02;5.72;;;21.70;99.90;;;;;;6142764;23;20021;-80
2023/07/24 03:21:31;;;;;;;9.45;4.55;;;21.70;99.90;;;;;;6166078;23;20047;-80
2023/07/24 03:23:59;;;;;;;7.75;4.60;;;21.70;99.90;;;;;;6164190;23;20046;-80
2023/07/24 03:26:26;;;;;;;8.10;4.55;;;21.70;99.90;;;;;;6163610;23;20020;-80
2023/07/24 03:28:54;;;;;;;8.65;4.70;;;21.60;99.90;;;;;;6163769;23;20353;-80
2023/07/24 03:31:21;;;;;;;5.85;3.80;;;21.60;99.90;;;;;;6166969;23;20136;-80
2023/07/24 03:33:49;;;;;;;6.20;3.38;;;21.60;99.90;;;;;;6149234;23;20036;-80
2023/07/24 03:36:16;;;;;;;8.27;4.05;;;21.60;99.90;;;;;;6166348;23;20017;-80
2023/07/24 03:38:49;;;;;;;7.72;4.40;;;21.40;99.90;;;;;;6163442;23;20147;-79
2023/07/24 03:41:17;;;;;;;7.47;3.60;;;21.30;99.90;;;;;;6141439;23;20483;-79
2023/07/24 03:43:44;;;;;;;5.80;3.42;;;21.40;99.90;;;;;;6164215;23;20012;-81
2023/07/24 03:46:12;;;;;;;5.07;3.60;;;21.60;99.90;;;;;;6140325;23;20516;-80
2023/07/24 03:48:39;;;;;;;6.72;3.58;;;21.40;99.90;;;;;;6140463;23;20025;-80
2023/07/24 03:51:10;;;;;;;8.45;4.57;;;21.40;99.90;;;;;;6165720;23;20077;-80
2023/07/24 03:53:37;;;;;;;6.50;4.07;;;21.50;99.90;;;;;;6142321;23;20040;-80
2023/07/24 03:56:07;;;;;;;6.00;4.13;;;21.40;99.90;;;;;;6164128;23;20135;-80
2023/07/24 03:58:38;;;;;;;7.25;3.70;;;21.00;99.90;;;;;;6140252;23;20021;-80
2023/07/24 04:01:08;;;;;;;6.30;4.00;;;21.40;99.90;;;;;;6165943;23;20013;-80
2023/07/24 04:03:36;;;;;;;5.95;4.15;;;21.20;99.90;;;;;;6142011;23;20029;-80
2023/07/24 04:06:03;;;;;;;7.07;4.50;;;21.20;99.90;;;;;;6169870;23;20512;-79
2023/07/24 04:08:31;;;;;;;6.30;4.20;;;21.30;99.90;;;;;;6145061;23;20021;-79
2023/07/24 04:10:58;;;;;;;8.57;5.00;;;21.40;99.90;;;;;;6171312;23;20021;-79
2023/07/24 04:13:25;;;;;;;8.70;5.60;;;21.40;99.90;;;;;;6151159;23;20043;-79
2023/07/24 04:15:53;;;;;;;7.28;4.32;;;21.40;99.90;;;;;;6148725;23;20053;-80
2023/07/24 04:18:20;;;;;;;8.00;4.78;;;21.50;99.90;;;;;;6150298;23;20055;-80
2023/07/24 04:20:47;;;;;;;12.32;5.90;;;21.60;99.90;;;;;;6148930;23;20092;-80
2023/07/24 04:23:15;;;;;;;8.02;4.85;;;21.50;99.90;;;;;;6153614;23;20029;-80
2023/07/24 04:25:42;;;;;;;9.95;5.75;;;21.40;99.90;;;;;;6169691;23;20468;-80
2023/07/24 04:28:09;;;;;;;10.70;6.43;;;21.60;99.90;;;;;;6140541;23;20024;-80
2023/07/24 04:30:36;;;;;;;11.20;6.40;;;21.70;99.90;;;;;;6152330;23;20020;-80
2023/07/24 04:33:04;;;;;;;12.52;6.35;;;21.70;99.90;;;;;;6171895;23;20017;-80
2023/07/24 04:35:31;;;;;;;12.80;7.10;;;21.80;99.90;;;;;;6143247;23;20112;-79
2023/07/24 04:37:58;;;;;;;9.32;6.30;;;21.90;99.90;;;;;;6166789;23;20017;-79
2023/07/24 04:40:28;;;;;;;10.55;6.50;;;21.90;99.90;;;;;;6148195;23;20017;-79
2023/07/24 04:42:56;;;;;;;11.55;7.32;;;21.90;99.90;;;;;;6143536;23;20044;-80
2023/07/24 04:45:23;;;;;;;12.00;7.20;;;21.90;99.90;;;;;;6136180;23;20025;-79
2023/07/24 04:47:50;;;;;;;11.30;7.57;;;22.00;99.90;;;;;;6163517;23;20021;-77
2023/07/24 04:50:18;;;;;;;13.18;8.25;;;22.00;99.90;;;;;;6138930;23;20028;-79
2023/07/24 04:52:45;;;;;;;11.88;8.02;;;22.00;99.90;;;;;;6141155;23;20520;-79
2023/07/24 04:55:12;;;;;;;10.48;7.68;;;22.20;99.90;;;;;;6158152;23;20025;-79
2023/07/24 04:57:40;;;;;;;13.93;8.60;;;22.10;99.90;;;;;;6135097;23;20029;-79
2023/07/24 05:00:08;;;;;;;12.13;9.07;;;22.20;99.90;;;;;;6147050;23;20052;-79
2023/07/24 05:02:35;;;;;;;14.82;9.23;;;22.30;99.90;;;;;;6180675;23;20028;-80
2023/07/24 05:05:02;;;;;;;14.18;8.73;;;22.30;99.90;;;;;;6191420;23;20035;-79
2023/07/24 05:07:29;;;;;;;12.20;8.60;;;22.40;99.90;;;;;;6188774;23;20023;-79
2023/07/24 05:09:57;;;;;;;11.52;7.90;;;22.40;99.90;;;;;;6191986;22;20081;-79
2023/07/24 05:12:27;;;;;;;15.02;9.55;;;22.50;99.90;;;;;;6193418;23;20048;-80
2023/07/24 05:14:54;;;;;;;13.13;8.85;;;22.60;99.90;;;;;;6172035;23;20020;-80
2023/07/24 05:17:21;;;;;;;11.35;9.15;;;22.70;99.90;;;;;;6195267;23;20036;-80
2023/07/24 05:19:49;;;;;;;12.68;9.13;;;22.80;99.90;;;;;;6190253;23;20017;-81
2023/07/24 05:22:16;;;;;;;12.73;9.35;;;22.90;99.90;;;;;;6189811;23;20709;-81
2023/07/24 05:24:43;;;;;;;13.77;8.65;;;23.00;99.90;;;;;;6164602;23;20025;-80
2023/07/24 05:27:12;;;;;;;14.25;8.70;;;23.10;99.90;;;;;;6191115;23;20021;-81
2023/07/24 05:29:39;;;;;;;12.95;8.32;;;23.20;99.90;;;;;;6215647;23;20437;-81
2023/07/24 05:32:07;;;;;;;14.18;9.95;;;23.30;99.90;;;;;;6192735;23;20728;-82
2023/07/24 05:34:34;;;;;;;12.70;8.00;;;23.40;99.90;;;;;;6165745;23;20028;-77
2023/07/24 05:37:01;;;;;;;14.30;8.38;;;23.60;99.90;;;;;;6167113;23;20016;-80
2023/07/24 05:39:30;;;;;;;13.93;8.88;;;23.70;99.90;;;;;;6194938;23;20357;-81
2023/07/24 05:41:57;;;;;;;14.27;8.82;;;23.80;99.90;;;;;;6196849;23;20025;-81
2023/07/24 05:44:24;;;;;;;10.65;8.02;;;23.90;99.90;;;;;;6196576;23;20437;-79
2023/07/24 05:46:51;;;;;;;11.55;8.40;;;24.00;99.90;;;;;;6195149;23;20408;-81
2023/07/24 05:49:18;;;;;;;15.48;7.65;;;24.00;99.90;;;;;;6193725;23;20052;-81
2023/07/24 05:51:45;;;;;;;11.57;7.95;;;24.10;99.90;;;;;;6170681;23;20031;-81
2023/07/24 05:54:14;;;;;;;11.15;8.02;;;24.20;99.90;;;;;;6195294;23;20017;-81
2023/07/24 05:56:41;;;;;;;19.13;9.05;;;24.40;99.90;;;;;;6173521;23;20020;-82
2023/07/24 05:59:08;;;;;;;10.13;7.07;;;24.50;99.90;;;;;;6198328;23;20449;-79
2023/07/24 06:01:35;;;;;;;12.95;8.00;;;24.60;99.90;;;;;;6172477;23;20031;-81
2023/07/24 06:04:03;;;;;;;12.40;7.38;;;24.70;99.90;;;;;;6195001;23;20456;-79
2023/07/24 06:06:31;;;;;;;11.10;7.78;;;24.80;99.90;;;;;;6170409;23;20021;-81
2023/07/24 06:08:58;;;;;;;10.68;7.50;;;24.90;99.90;;;;;;6170110;23;20023;-81
2023/07/24 06:11:26;;;;;;;12.40;8.00;;;25.00;99.90;;;;;;6196996;23;20514;-81
2023/07/24 06:13:53;;;;;;;10.38;7.88;;;25.20;99.90;;;;;;6176822;23;20028;-81
2023/07/24 06:16:21;;;;;;;12.65;8.48;;;25.20;99.90;;;;;;6190595;23;20017;-82
2023/07/24 06:18:48;;;;;;;12.13;8.13;;;25.30;99.90;;;;;;6193814;23;20020;-82
2023/07/24 06:21:15;;;;;;;11.23;8.02;;;25.40;99.90;;;;;;6195612;23;20025;-80
2023/07/24 06:23:42;;;;;;;10.73;7.50;;;25.50;99.90;;;;;;6193537;23;20028;-81
2023/07/24 06:26:09;;;;;;;11.27;7.80;;;25.60;99.90;;;;;;6196714;23;20051;-81
2023/07/24 06:28:36;;;;;;;9.77;7.07;;;25.80;99.90;;;;;;6190142;23;20024;-80
2023/07/24 06:31:03;;;;;;;11.68;7.10;;;25.90;99.90;;;;;;6195685;23;20000;-81
2023/07/24 06:33:30;;;;;;;9.98;7.20;;;26.00;99.70;;;;;;6191169;23;20051;-81
2023/07/24 06:35:57;;;;;;;12.10;7.78;;;26.00;99.40;;;;;;6196400;23;20021;-82
2023/07/24 06:38:24;;;;;;;11.18;7.68;;;26.10;99.90;;;;;;6195073;23;20024;-83
2023/07/24 06:40:52;;;;;;;10.75;7.90;;;26.20;99.70;;;;;;6191597;23;20028;-83
2023/07/24 06:43:19;;;;;;;10.50;7.38;;;26.20;99.60;;;;;;6193727;23;20066;-83
2023/07/24 06:45:46;;;;;;;12.02;8.20;;;26.40;99.50;;;;;;6193346;23;20024;-84
2023/07/24 06:48:13;;;;;;;11.25;7.25;;;26.40;99.50;;;;;;6192106;23;20051;-82
2023/07/24 06:50:40;;;;;;;11.05;7.45;;;26.50;99.20;;;;;;6192844;23;20016;-82
2023/07/24 06:53:07;;;;;;;11.27;7.25;;;26.70;98.90;;;;;;6167459;23;20023;-81
2023/07/24 06:55:35;;;;;;;9.60;7.20;;;26.80;99.10;;;;;;6166990;23;20048;-79
2023/07/24 06:58:02;;;;;;;10.80;7.53;;;26.90;98.70;;;;;;6167482;23;20043;-81
2023/07/24 07:00:29;;;;;;;11.10;7.05;;;26.90;98.20;;;;;;6194031;23;20047;-80
2023/07/24 07:02:56;;;;;;;10.38;7.15;;;27.10;97.70;;;;;;6192272;23;20024;-80
2023/07/24 07:05:23;;;;;;;11.10;7.97;;;27.10;97.70;;;;;;6192796;23;20547;-81
2023/07/24 07:07:50;;;;;;;14.18;8.10;;;27.20;97.00;;;;;;6190797;23;20106;-79
2023/07/24 07:10:17;;;;;;;14.40;8.93;;;27.30;97.30;;;;;;6193628;23;20027;-80
2023/07/24 07:12:45;;;;;;;9.45;7.13;;;27.40;96.10;;;;;;6193011;23;20024;-79
2023/07/24 07:15:12;;;;;;;10.80;6.97;;;27.50;96.70;;;;;;6189560;23;20055;-79
2023/07/24 07:17:39;;;;;;;10.60;7.25;;;27.50;95.40;;;;;;6191536;23;20601;-80
2023/07/24 07:20:07;;;;;;;11.55;7.47;;;27.60;95.90;;;;;;6192185;23;20063;-80
2023/07/24 07:22:34;;;;;;;11.18;7.88;;;27.70;95.40;;;;;;6193538;23;20408;-80
2023/07/24 07:25:01;;;;;;;11.93;8.38;;;27.80;95.50;;;;;;6169870;23;20449;-79
2023/07/24 07:27:28;;;;;;;11.00;7.90;;;28.00;95.50;;;;;;6193669;23;20917;-80
2023/07/24 07:29:55;;;;;;;10.18;7.80;;;28.20;94.60;;;;;;6194707;23;20064;-80
2023/07/24 07:32:22;;;;;;;12.73;7.78;;;28.30;94.40;;;;;;6193811;23;20036;-81
2023/07/24 07:34:49;;;;;;;12.30;8.07;;;28.30;94.30;;;;;;6169577;23;20034;-81
2023/07/24 07:37:17;;;;;;;11.45;8.35;;;28.30;93.80;;;;;;6192674;23;20025;-80
2023/07/24 07:39:44;;;;;;;11.05;7.38;;;28.30;94.10;;;;;;6192755;23;20024;-81
2023/07/24 07:42:11;;;;;;;10.18;6.15;;;28.40;93.70;;;;;;6191383;23;20502;-80
2023/07/24 07:44:45;;;;;;;9.25;6.85;;;28.50;93.30;;;;;;6190234;23;20401;-80
2023/07/24 07:47:13;;;;;;;9.40;6.68;;;28.60;92.60;;;;;;6141963;23;20060;-80
2023/07/24 07:49:41;;;;;;;10.02;7.10;;;28.70;93.00;;;;;;6166281;23;20020;-81
2023/07/24 07:52:09;;;;;;;10.30;6.88;;;28.70;91.90;;;;;;6213525;23;20020;-79
2023/07/24 07:54:36;;;;;;;9.57;6.50;;;28.70;91.80;;;;;;6165683;23;20020;-81
2023/07/24 07:57:04;;;;;;;11.48;6.70;;;28.80;91.20;;;;;;6189390;23;20459;-80
2023/07/24 07:59:31;;;;;;;12.07;6.75;;;28.80;91.50;;;;;;6166644;23;20021;-81
2023/07/24 08:01:59;;;;;;;9.68;6.35;;;28.80;90.40;;;;;;6216706;23;20040;-82
2023/07/24 08:04:26;;;;;;;8.00;5.97;;;28.90;90.60;;;;;;6189890;23;20349;-77
2023/07/24 08:06:53;;;;;;;11.48;7.20;;;28.90;90.00;;;;;;6189298;23;20012;-78
2023/07/24 08:09:21;;;;;;;11.18;6.65;;;28.90;90.00;;;;;;6190629;23;20035;-82
2023/07/24 08:11:48;;;;;;;10.75;6.70;;;29.00;90.20;;;;;;6191303;23;20071;-80
2023/07/24 08:14:15;;;;;;;8.93;5.70;;;29.10;89.30;;;;;;6164819;23;20032;-81
2023/07/24 08:16:42;;;;;;;12.00;6.43;;;29.10;90.30;;;;;;6190294;23;20031;-78
2023/07/24 08:19:10;;;;;;;12.10;6.90;;;29.20;89.70;;;;;;6190179;23;20344;-78
2023/07/24 08:21:38;;;;;;;10.35;6.13;;;29.20;89.70;;;;;;6190387;23;20016;-81
2023/07/24 08:24:06;;;;;;;9.60;6.43;;;29.20;88.10;;;;;;6165700;23;20030;-81
2023/07/24 08:26:33;;;;;;;9.88;5.78;;;29.20;88.00;;;;;;6165928;23;20400;-81
2023/07/24 08:29:00;;;;;;;7.43;5.63;;;29.20;89.50;;;;;;6163323;23;20484;-79
2023/07/24 08:31:29;;;;;;;9.50;5.68;;;29.30;88.20;;;;;;6191609;23;20023;-81
2023/07/24 08:33:57;;;;;;;8.95;5.20;;;29.30;88.70;;;;;;6190977;23;20333;-80
2023/07/24 08:36:24;;;;;;;9.32;5.90;;;29.30;85.30;;;;;;6190033;23;20099;-80
2023/07/24 08:38:51;;;;;;;10.05;5.82;;;29.40;85.00;;;;;;6189224;23;20020;-81
2023/07/24 08:41:18;;;;;;;10.10;5.65;;;29.40;84.30;;;;;;6164946;23;20028;-79
2023/07/24 08:43:45;;;;;;;6.90;4.63;;;29.40;84.30;;;;;;6165888;23;20036;-80
2023/07/24 08:46:13;;;;;;;10.60;5.00;;;29.50;83.40;;;;;;6189715;23;20024;-80
2023/07/24 08:48:42;;;;;;;9.98;5.68;;;29.50;82.50;;;;;;6215479;23;20016;-77
2023/07/24 08:51:15;;;;;;;7.78;5.65;;;29.50;81.90;;;;;;6164646;23;20549;-79
2023/07/24 08:53:43;;;;;;;13.00;5.50;;;29.50;82.50;;;;;;6164771;23;20016;-78
2023/07/24 08:56:12;;;;;;;10.10;5.40;;;29.70;83.20;;;;;;6189227;23;20044;-79
2023/07/24 08:58:40;;;;;;;8.60;4.75;;;29.90;82.30;;;;;;6189192;23;20352;-79
2023/07/24 09:01:08;;;;;;;9.35;5.32;;;30.00;80.80;;;;;;6189184;23;20024;-79
2023/07/24 09:03:37;;;;;;;10.23;4.97;;;30.00;79.90;;;;;;6189051;23;20122;-80
2023/07/24 09:06:07;;;;;;;7.38;4.38;;;30.10;78.50;;;;;;6190614;23;20047;-80
2023/07/24 09:08:40;;;;;;;8.80;5.03;;;30.20;79.40;;;;;;6188363;23;20055;-78
2023/07/24 09:11:08;;;;;;;9.18;5.22;;;30.20;77.60;;;;;;6189081;23;20016;-78
2023/07/24 09:13:38;;;;;;;11.57;5.45;;;30.10;76.20;;;;;;6189887;23;20020;-82
2023/07/24 09:16:05;;;;;;;10.48;5.60;;;30.20;76.00;;;;;;6215098;23;20024;-80
2023/07/24 09:18:43;;;;;;;11.32;5.60;;;30.10;73.50;;;;;;6190216;23;20043;-80
2023/07/24 09:21:13;;;;;;;9.43;5.22;;;30.30;75.00;;;;;;6163976;23;20025;-80
2023/07/24 09:23:40;;;;;;;12.70;5.15;;;30.30;73.70;;;;;;6215724;23;20703;-80
2023/07/24 09:26:08;;;;;;;11.02;5.00;;;30.40;74.50;;;;;;6187596;23;20740;-79
2023/07/24 09:28:36;;;;;;;8.48;5.10;;;30.50;72.70;;;;;;6163308;23;20055;-80
2023/07/24 09:31:04;;;;;;;9.70;5.22;;;30.50;69.20;;;;;;6187751;23;20412;-81
2023/07/24 09:33:39;;;;;;;7.45;4.90;;;30.60;71.50;;;;;;6163716;23;20445;-78
2023/07/24 09:36:08;;;;;;;12.68;5.30;;;30.60;72.70;;;;;;6214626;23;20101;-80
2023/07/24 09:38:37;;;;;;;10.32;4.75;;;30.70;71.50;;;;;;6188503;23;20099;-80
2023/07/24 09:41:05;;;;;;;11.73;5.95;;;30.80;70.70;;;;;;6163592;23;20440;-79
2023/07/24 09:43:35;;;;;;;10.88;5.63;;;30.70;70.50;;;;;;6188830;23;20035;-81
2023/07/24 09:46:08;;;;;;;11.50;5.95;;;30.80;69.50;;;;;;6214679;23;20016;-80
2023/07/24 09:48:37;;;;;;;12.63;5.75;;;30.80;66.80;;;;;;6188672;23;20017;-78
2023/07/24 09:51:14;;;;;;;10.30;5.10;;;30.90;67.30;;;;;;6165055;23;20420;-80
2023/07/24 09:54:10;;;;;;;10.05;4.78;;;30.80;66.50;;;;;;6189235;23;20035;-79
2023/07/24 09:56:38;;;;;;;10.63;5.55;;;31.00;67.50;;;;;;6148558;23;20111;-78
2023/07/24 09:59:22;;;;;;;12.45;5.30;;;31.00;67.90;;;;;;6168636;23;20017;-81
2023/07/24 10:01:51;;;;;;;11.35;5.68;;;30.90;67.90;;;;;;6191604;23;20032;-79
2023/07/24 10:04:19;;;;;;;9.60;5.85;;;30.90;67.00;;;;;;6218584;23;20017;-81
2023/07/24 10:06:47;;;;;;;14.50;7.03;;;30.80;66.10;;;;;;6189545;23;20025;-79
2023/07/24 10:09:15;;;;;;;15.10;6.50;;;30.90;67.60;;;;;;6188460;23;20092;-79
2023/07/24 10:11:42;;;;;;;11.40;6.55;;;30.90;67.10;;;;;;6164782;23;20024;-78
2023/07/24 10:14:10;;;;;;;11.50;5.28;;;30.90;67.50;;;;;;6215679;23;20039;-78
2023/07/24 10:16:38;;;;;;;11.70;5.53;;;31.10;68.00;;;;;;6189135;23;20028;-78
2023/07/24 10:19:16;;;;;;;9.38;6.05;;;31.10;66.10;;;;;;6189946;23;20025;-77
2023/07/24 10:21:48;;;;;;;10.63;5.50;;;31.10;66.20;;;;;;6215340;23;20024;-79
2023/07/24 10:24:15;;;;;;;;;;;31.00;67.30;;;;;;6164530;23;20017;-77
2023/07/24 10:27:03;;;;;;;11.52;5.78;;;31.00;65.10;;;;;;6190247;23;19916;-79
2023/07/24 10:29:35;;;;;;;11.48;5.53;;;31.20;67.20;;;;;;6189814;23;20031;-78
2023/07/24 10:32:03;;;;;;;11.38;5.30;;;31.20;66.10;;;;;;6189895;23;20051;-79
2023/07/24 10:34:40;;;;;;;11.27;5.57;;;31.20;65.10;;;;;;6190967;23;20070;-77
2023/07/24 10:37:11;;;;;;;11.82;5.85;;;31.40;65.80;;;;;;6166375;23;20411;-79
2023/07/24 10:39:41;;;;;;;11.13;5.40;;;31.40;65.50;;;;;;6165419;23;20028;-79
2023/07/24 10:42:10;;;;;;;11.97;5.73;;;31.30;65.50;;;;;;6190360;23;20639;-79
2023/07/24 10:44:37;;;;;;;11.27;5.93;;;31.40;65.10;;;;;;6189424;23;20051;-78
2023/07/24 10:47:04;;;;;;;9.57;5.88;;;31.40;65.00;;;;;;6190537;23;20040;-78
2023/07/24 10:49:32;;;;;;;11.65;5.80;;;31.40;65.80;;;;;;6192190;23;20027;-79
2023/07/24 10:51:59;;;;;;;10.30;5.43;;;31.40;66.50;;;;;;6191339;23;20036;-79
2023/07/24 10:54:26;;;;;;;10.75;5.57;;;31.30;65.90;;;;;;6190892;23;20071;-80
2023/07/24 10:57:03;;;;;;;9.25;5.20;;;31.30;65.40;;;;;;6189391;23;20120;-80
2023/07/24 10:59:40;;;;;;;10.63;5.97;;;31.20;65.60;;;;;;6185028;23;20020;-79
2023/07/24 11:02:07;;;;;;;14.50;7.25;;;31.20;65.90;;;;;;6155490;23;20020;-79
2023/07/24 11:04:34;;;;;;;11.82;5.35;;;31.20;65.70;;;;;;6179030;23;20027;-78
2023/07/24 11:07:02;;;;;;;12.38;5.22;;;31.30;65.90;;;;;;6179802;23;20475;-77
2023/07/24 11:09:37;;;;;;;11.10;6.05;;;31.40;66.00;;;;;;6185462;23;20036;-77
2023/07/24 11:12:11;;;;;;;12.77;6.10;;;31.50;65.20;;;;;;6158629;23;20021;-77
2023/07/24 11:14:51;;;;;;;11.65;5.32;;;31.60;64.50;;;;;;6184139;23;20023;-77
2023/07/24 11:17:18;;;;;;;8.38;5.20;;;31.70;65.10;;;;;;6154600;23;20044;-79
2023/07/24 11:19:45;;;;;;;10.32;5.30;;;31.80;65.70;;;;;;6182329;23;20444;-78
2023/07/24 11:22:13;;;;;;;12.27;5.63;;;31.50;64.60;;;;;;6178566;23;20025;-77
2023/07/24 11:24:45;;;;;;;11.23;5.78;;;31.70;64.60;;;;;;6173469;23;20059;-78
2023/07/24 11:27:17;;;;;;;9.25;5.05;;;31.70;63.60;;;;;;6179160;23;20020;-79
2023/07/24 11:29:49;;;;;;;9.57;5.45;;;31.70;63.70;;;;;;6146356;23;20079;-78
2023/07/24 11:32:20;;;;;;;11.27;5.55;;;31.80;64.30;;;;;;6148127;23;20083;-79
2023/07/24 11:34:49;;;;;;;13.03;5.47;;;31.80;64.60;;;;;;6179453;23;20086;-77
2023/07/24 11:37:18;;;;;;;7.32;4.50;;;32.00;65.10;;;;;;6179627;23;20459;-78
2023/07/24 11:39:59;;;;;;;8.57;4.82;;;31.90;64.00;;;;;;6148769;23;20086;-78
2023/07/24 11:42:27;;;;;;;9.45;5.80;;;31.80;64.40;;;;;;6154844;23;20032;-76
2023/07/24 11:44:54;;;;;;;10.60;5.45;;;31.80;64.60;;;;;;6177005;23;20035;-77
2023/07/24 11:47:22;;;;;;;7.72;4.72;;;32.00;64.90;;;;;;6206772;23;20020;-79
2023/07/24 11:50:00;;;;;;;8.77;4.75;;;31.90;64.80;;;;;;6173895;23;20020;-77
2023/07/24 11:52:50;;;;;;;8.70;4.70;;;31.80;65.00;;;;;;6182224;23;20027;-79
2023/07/24 11:55:30;;;;;;;11.32;4.75;;;31.90;66.40;;;;;;6201840;23;20017;-79
2023/07/24 11:58:03;;;;;;;11.23;5.28;;;31.90;64.70;;;;;;6155713;23;20035;-82
2023/07/24 12:00:36;;;;;;;11.50;5.10;;;32.00;65.30;;;;;;6180201;23;20076;-79
2023/07/24 12:03:04;;;;;;;10.32;5.30;;;32.00;64.10;;;;;;6180183;23;20054;-78
2023/07/24 12:05:42;;;;;;;10.25;4.97;;;32.00;63.60;;;;;;6155992;23;20024;-78
2023/07/24 12:08:10;;;;;;;10.80;5.03;;;31.90;64.00;;;;;;6176545;23;20023;-79
2023/07/24 12:10:38;;;;;;;8.85;5.28;;;31.90;64.10;;;;;;6175035;23;20107;-78
2023/07/24 12:13:07;;;;;;;10.50;4.55;;;31.90;63.30;;;;;;6180166;23;20433;-79
2023/07/24 12:15:35;;;;;;;9.45;4.93;;;32.00;62.90;;;;;;6175365;23;20012;-77
2023/07/24 12:18:03;;;;;;;9.88;4.72;;;32.10;63.50;;;;;;6201264;23;20071;-80
2023/07/24 12:20:31;;;;;;;9.30;4.57;;;32.00;62.10;;;;;;6131166;23;20863;-78
2023/07/24 12:22:58;;;;;;;8.07;4.95;;;32.10;63.10;;;;;;6156394;23;20028;-78
2023/07/24 12:25:27;;;;;;;11.73;5.35;;;32.00;63.30;;;;;;6181745;23;20384;-80
2023/07/24 12:27:54;;;;;;;6.95;4.22;;;32.10;63.90;;;;;;6174144;23;20047;-80
2023/07/24 12:30:21;;;;;;;8.00;4.50;;;32.10;63.50;;;;;;6180632;23;20103;-78
2023/07/24 12:32:49;;;;;;;8.45;4.78;;;32.10;64.40;;;;;;6180107;23;20027;-77
2023/07/24 12:35:17;;;;;;;11.85;5.20;;;32.30;64.40;;;;;;6180811;23;20020;-78
2023/07/24 12:37:45;;;;;;;9.90;4.80;;;32.20;64.80;;;;;;6179839;23;20024;-77
2023/07/24 12:40:13;;;;;;;11.95;4.75;;;32.30;64.70;;;;;;6180791;23;20762;-78
2023/07/24 12:42:40;;;;;;;9.68;4.55;;;32.40;64.20;;;;;;6207782;23;20123;-77
2023/07/24 12:45:07;;;;;;;9.63;4.90;;;32.50;64.10;;;;;;6181347;23;20444;-77
2023/07/24 12:47:35;;;;;;;7.28;4.18;;;32.30;62.50;;;;;;6198313;23;20044;-76
2023/07/24 12:50:02;;;;;;;8.65;4.82;;;32.20;63.50;;;;;;6176558;23;20013;-78